Time;durP1;ratioP1;P1;durP2;ratioP2;P2;SDS_P1;SDS_P2;PMS_P1;PMS_P2;Temp;Humidity;BMP_temperature;BMP_pressure;BME280_temperature;BME280_humidity;BME280_pressure;Samples;Min_cycle;Max_cycle;Signal;HPM_P1;HPM_P2
2024/04/01 00:02:45;;;;;;;165.10;152.80;;;;;;;10.65;100.00;98755.45;212915;1298;140997;-80
2024/04/01 00:07:48;;;;;;;187.50;173.20;;;;;;;10.59;100.00;98744.86;213438;1296;97976;-81
2024/04/01 00:12:49;;;;;;;147.30;133.40;;;;;;;10.55;100.00;98751.12;212922;1297;141082;-80
2024/04/01 00:17:50;;;;;;;130.10;119.10;;;;;;;10.53;100.00;98763.18;212393;1297;140501;-81
2024/04/01 00:22:50;;;;;;;107.10;96.40;;;;;;;10.47;100.00;98764.36;210996;1297;691461;-80
2024/04/01 00:27:51;;;;;;;147.10;134.10;;;;;;;10.41;100.00;98760.36;213897;1297;139303;-81
2024/04/01 00:32:52;;;;;;;101.80;92.60;;;;;;;10.38;100.00;98756.80;216075;1295;140533;-81
2024/04/01 00:37:53;;;;;;;143.20;131.50;;;;;;;10.34;100.00;98754.28;215486;1297;139288;-82
2024/04/01 00:43:03;;;;;;;122.80;112.30;;;;;;;10.31;100.00;98759.73;210595;1296;140143;-81
2024/04/01 00:48:05;;;;;;;101.30;92.50;;;;;;;10.25;100.00;98757.15;210844;1300;140070;-81
2024/04/01 00:53:09;;;;;;;90.60;81.70;;;;;;;10.21;100.00;98744.34;210040;1300;140790;-81
2024/04/01 00:58:10;;;;;;;95.40;86.30;;;;;;;10.20;100.00;98744.67;210887;1295;139062;-81
2024/04/01 01:03:11;;;;;;;108.80;96.20;;;;;;;10.18;100.00;98744.45;210579;1296;141291;-81
2024/04/01 01:08:13;;;;;;;113.00;103.00;;;;;;;10.16;100.00;98735.54;211067;1297;139043;-81
2024/04/01 01:13:15;;;;;;;103.10;94.00;;;;;;;10.13;100.00;98738.48;211243;1298;140901;-81
2024/04/01 01:18:16;;;;;;;99.20;90.90;;;;;;;10.11;100.00;98744.23;212037;1300;139459;-81
2024/04/01 01:23:16;;;;;;;72.50;59.30;;;;;;;10.10;100.00;98748.98;211629;1297;139978;-81
2024/04/01 01:28:17;;;;;;;106.10;96.10;;;;;;;10.05;100.00;98754.45;211962;1300;138994;-81
2024/04/01 01:33:18;;;;;;;103.40;92.20;;;;;;;9.99;100.00;98746.96;212175;1299;140039;-81
2024/04/01 01:38:18;;;;;;;82.70;73.60;;;;;;;9.97;100.00;98737.67;212101;1297;138871;-82
2024/04/01 01:43:19;;;;;;;77.50;65.40;;;;;;;9.91;100.00;98723.69;211618;1296;139255;-81
2024/04/01 01:48:20;;;;;;;82.70;72.40;;;;;;;9.87;100.00;98727.51;212122;1297;139544;-81
2024/04/01 01:53:20;;;;;;;72.90;47.70;;;;;;;9.84;100.00;98719.94;211598;1297;139731;-80
2024/04/01 01:58:21;;;;;;;77.40;67.00;;;;;;;9.80;100.00;98707.82;212100;1296;138627;-81
2024/04/01 02:03:21;;;;;;;72.40;58.40;;;;;;;9.76;100.00;98707.10;211523;1297;139703;-81
2024/04/01 02:08:22;;;;;;;78.20;62.10;;;;;;;9.72;100.00;98703.84;211946;1297;140351;-81
2024/04/01 02:13:22;;;;;;;61.70;50.00;;;;;;;9.71;100.00;98702.75;212299;1296;139820;-81
2024/04/01 02:18:23;;;;;;;60.00;45.30;;;;;;;9.68;100.00;98699.81;216488;1296;138804;-81
2024/04/01 02:23:29;;;;;;;74.50;55.60;;;;;;;9.66;100.00;98704.77;216149;1296;140496;-80
2024/04/01 02:28:31;;;;;;;78.20;64.40;;;;;;;9.65;100.00;98710.61;212459;1297;138893;-81
2024/04/01 02:33:31;;;;;;;77.10;60.10;;;;;;;9.63;100.00;98708.73;210663;1303;140558;-81
2024/04/01 02:38:32;;;;;;;78.00;61.70;;;;;;;9.60;100.00;98708.33;210983;1297;138738;-81
2024/04/01 02:43:32;;;;;;;63.50;52.70;;;;;;;9.57;100.00;98709.46;210573;1298;139836;-81
2024/04/01 02:48:33;;;;;;;74.30;63.70;;;;;;;9.55;100.00;98718.90;210774;1300;138728;-80
2024/04/01 02:53:34;;;;;;;70.70;49.30;;;;;;;9.53;100.00;98716.17;210353;1297;140103;-81
2024/04/01 02:58:34;;;;;;;72.20;50.40;;;;;;;9.53;100.00;98715.86;211388;1297;138647;-81
2024/04/01 03:03:35;;;;;;;59.10;43.20;;;;;;;9.49;100.00;98716.23;211398;1300;140887;-80
2024/04/01 03:08:38;;;;;;;58.00;41.10;;;;;;;9.46;100.00;98714.45;211888;1297;138736;-80
2024/04/01 03:13:38;;;;;;;47.00;31.00;;;;;;;9.42;100.00;98706.73;211407;1300;139941;-81
2024/04/01 03:18:39;;;;;;;49.10;28.40;;;;;;;9.39;100.00;98703.95;211817;1296;138667;-81
2024/04/01 03:23:40;;;;;;;63.70;30.90;;;;;;;9.35;100.00;98702.58;211989;1297;140702;-81
2024/04/01 03:28:40;;;;;;;58.90;31.70;;;;;;;9.31;100.00;98696.27;211975;1300;138875;-81
2024/04/01 03:33:41;;;;;;;40.40;24.60;;;;;;;9.28;100.00;98697.17;211352;1300;139632;-81
2024/04/01 03:38:41;;;;;;;40.00;21.40;;;;;;;9.24;100.00;98707.27;211958;1297;138923;-81
2024/04/01 03:43:42;;;;;;;34.90;19.70;;;;;;;9.21;100.00;98719.84;211254;1298;139810;-81
2024/04/01 03:48:42;;;;;;;43.70;16.80;;;;;;;9.16;100.00;98727.58;211833;1296;138673;-81
2024/04/01 03:53:43;;;;;;;38.20;15.20;;;;;;;9.11;100.00;98730.92;211387;1297;140041;-82
2024/04/01 03:58:43;;;;;;;37.60;11.20;;;;;;;9.05;100.00;98737.80;211852;1296;138965;-81
2024/04/01 04:03:44;;;;;;;40.10;14.40;;;;;;;9.00;100.00;98733.23;214079;1297;140366;-81
2024/04/01 04:08:47;;;;;;;43.80;17.30;;;;;;;8.95;100.00;98735.16;216740;1297;138742;-81
2024/04/01 04:13:47;;;;;;;35.50;14.90;;;;;;;8.91;100.00;98739.59;214127;1297;140354;-81
2024/04/01 04:18:48;;;;;;;42.10;16.60;;;;;;;8.88;100.00;98742.66;211260;1300;138363;-81
2024/04/01 04:23:49;;;;;;;42.70;16.00;;;;;;;8.84;100.00;98741.06;210165;1300;139261;-81
2024/04/01 04:28:49;;;;;;;44.80;16.40;;;;;;;8.80;100.00;98739.45;210707;1303;138746;-80
2024/04/01 04:33:50;;;;;;;52.10;15.60;;;;;;;8.75;100.00;98738.08;210192;1297;140592;-80
2024/04/01 04:38:50;;;;;;;31.00;14.10;;;;;;;8.72;100.00;98738.28;210783;1300;138842;-80
2024/04/01 04:43:51;;;;;;;44.20;16.80;;;;;;;8.67;100.00;98724.20;210760;1297;139611;-80
2024/04/01 04:48:52;;;;;;;40.00;11.50;;;;;;;8.64;100.00;98717.03;211624;1300;138964;-80
2024/04/01 04:53:53;;;;;;;44.80;11.80;;;;;;;8.62;100.00;98710.47;211879;1300;139713;-80
2024/04/01 04:58:53;;;;;;;57.90;15.70;;;;;;;8.60;100.00;98704.52;212506;1298;138783;-80
2024/04/01 05:03:54;;;;;;;51.20;17.80;;;;;;;8.62;100.00;98708.04;212169;1297;139341;-80
2024/04/01 05:08:56;;;;;;;43.60;15.60;;;;;;;8.67;100.00;98698.29;212232;1297;138730;-80
2024/04/01 05:13:56;;;;;;;58.30;15.20;;;;;;;8.72;100.00;98680.13;212127;1297;154390;-80
2024/04/01 05:18:57;;;;;;;49.00;24.20;;;;;;;8.81;100.00;98673.45;211482;1297;139486;-80
2024/04/01 05:23:57;;;;;;;61.20;26.70;;;;;;;8.93;100.00;98666.98;212101;1298;138513;-80
2024/04/01 05:28:59;;;;;;;57.70;28.00;;;;;;;9.07;100.00;98675.94;211354;1297;140245;-80
2024/04/01 05:34:01;;;;;;;65.00;43.60;;;;;;;9.23;100.00;98662.26;211890;1297;138671;-80
2024/04/01 05:39:05;;;;;;;79.80;51.90;;;;;;;9.44;100.00;98659.02;211302;1297;139924;-80
2024/04/01 05:44:06;;;;;;;96.40;84.40;;;;;;;9.69;100.00;98648.17;211707;1297;140018;-80
2024/04/01 05:49:06;;;;;;;144.90;130.50;;;;;;;9.89;100.00;98657.45;211939;1297;139827;-80
2024/04/01 05:54:08;;;;;;;143.00;129.30;;;;;;;10.13;100.00;98667.63;216691;1295;138908;-80
2024/04/01 05:59:09;;;;;;;245.50;226.20;;;;;;;10.42;100.00;98670.01;216193;1295;140176;-78
2024/04/01 06:04:09;;;;;;;298.70;274.50;;;;;;;10.69;100.00;98674.64;211833;1297;139575;-78
2024/04/01 06:09:10;;;;;;;451.80;416.40;;;;;;;10.93;100.00;98657.61;210386;1297;140213;-78
2024/04/01 06:14:10;;;;;;;548.20;504.00;;;;;;;11.11;100.00;98642.26;210722;1300;139484;-77
2024/04/01 06:19:11;;;;;;;579.90;532.10;;;;;;;11.31;100.00;98627.20;210303;1300;140696;-78
2024/04/01 06:24:12;;;;;;;706.30;644.50;;;;;;;11.52;100.00;98622.60;210804;1300;139279;-77
2024/04/01 06:29:13;;;;;;;601.90;553.80;;;;;;;11.77;100.00;98640.35;210281;1297;142053;-78
2024/04/01 06:34:15;;;;;;;714.80;649.90;;;;;;;12.01;100.00;98633.58;210981;1296;139467;-78
2024/04/01 06:39:16;;;;;;;776.40;706.90;;;;;;;12.17;100.00;98625.92;211446;1297;140229;-78
2024/04/01 06:44:17;;;;;;;824.20;747.00;;;;;;;12.31;100.00;98629.46;211971;1297;139539;-78
2024/04/01 06:49:17;;;;;;;850.20;768.00;;;;;;;12.46;100.00;98630.95;211576;1297;140194;-78
2024/04/01 06:54:18;;;;;;;877.20;792.60;;;;;;;12.61;100.00;98613.95;212112;1298;139365;-78
2024/04/01 06:59:18;;;;;;;814.30;743.90;;;;;;;12.73;100.00;98615.96;211526;1297;140954;-78
2024/04/01 07:04:19;;;;;;;925.90;825.70;;;;;;;12.88;100.00;98618.27;212569;1297;140219;-78
2024/04/01 07:09:19;;;;;;;1158.20;918.40;;;;;;;13.03;100.00;98608.95;211511;1297;140622;-79
2024/04/01 07:14:20;;;;;;;1218.30;951.70;;;;;;;13.20;100.00;98615.44;212059;1297;139610;-78
2024/04/01 07:19:21;;;;;;;1254.40;970.60;;;;;;;13.38;100.00;98638.36;211908;1300;163142;-78
2024/04/01 07:24:22;;;;;;;1313.60;964.70;;;;;;;13.54;100.00;98644.59;211994;1296;139833;-79
2024/04/01 07:29:22;;;;;;;1573.10;995.30;;;;;;;13.70;100.00;98634.86;211800;1297;141237;-78
2024/04/01 07:34:23;;;;;;;1649.80;999.90;;;;;;;13.90;100.00;98632.27;212067;1297;139875;-78
2024/04/01 07:39:23;;;;;;;1871.40;999.90;;;;;;;14.12;100.00;98636.16;212812;1297;141142;-78
2024/04/01 07:44:24;;;;;;;1888.60;999.90;;;;;;;14.37;100.00;98650.70;216665;1295;140387;-78
2024/04/01 07:49:25;;;;;;;1999.90;999.90;;;;;;;14.59;100.00;98646.60;215882;1297;140793;-78
2024/04/01 07:54:28;;;;;;;1994.00;999.90;;;;;;;14.75;99.99;98661.40;210940;1300;139659;-78
2024/04/01 07:59:33;;;;;;;1999.90;999.90;;;;;;;14.92;98.96;98662.48;210540;1296;140487;-79
2024/04/01 08:04:34;;;;;;;1999.90;999.90;;;;;;;15.05;98.80;98661.69;210955;1300;139356;-79
2024/04/01 08:09:35;;;;;;;1999.90;999.90;;;;;;;15.18;97.90;98665.91;210603;1296;140841;-78
2024/04/01 08:14:36;;;;;;;1999.90;999.90;;;;;;;15.27;96.43;98661.61;210975;1297;139823;-78
2024/04/01 08:19:37;;;;;;;1999.90;999.90;;;;;;;15.37;96.03;98661.98;211359;1300;141230;-80
2024/04/01 08:24:38;;;;;;;1999.90;999.90;;;;;;;15.51;95.40;98661.16;211698;1297;139911;-80
2024/04/01 08:29:38;;;;;;;1999.90;999.90;;;;;;;15.62;93.50;98651.71;212115;1297;141398;-79
2024/04/01 08:34:39;;;;;;;1999.90;999.90;;;;;;;15.67;92.34;98625.71;212328;1298;141140;-78
2024/04/01 08:39:40;;;;;;;1999.90;999.90;;;;;;;15.76;91.52;98619.11;211764;1300;140756;-79
2024/04/01 08:44:45;;;;;;;1860.00;999.90;;;;;;;15.83;90.81;98617.16;212067;1298;139911;-79
2024/04/01 08:50:01;;;;;;;1847.10;999.90;;;;;;;15.91;90.34;98603.67;211453;1297;140604;-80
2024/04/01 08:55:03;;;;;;;1837.40;999.90;;;;;;;15.96;89.20;98596.52;212475;1298;110453;-78
2024/04/01 09:00:04;;;;;;;1702.30;999.90;;;;;;;16.02;89.35;98583.08;211741;1300;141397;-79
2024/04/01 09:05:05;;;;;;;1955.60;999.90;;;;;;;16.13;88.81;98569.31;212374;1298;139805;-79
2024/04/01 09:10:06;;;;;;;1938.40;999.90;;;;;;;16.22;88.08;98558.52;211568;1297;140262;-79
2024/04/01 09:15:11;;;;;;;1999.90;999.90;;;;;;;16.29;87.80;98553.05;212059;1297;139448;-79
2024/04/01 09:20:12;;;;;;;1954.80;999.90;;;;;;;16.49;88.04;98545.73;211982;1297;141601;-79
2024/04/01 09:25:13;;;;;;;1999.90;999.90;;;;;;;16.67;87.09;98539.52;212255;1296;97900;-79
2024/04/01 09:30:15;;;;;;;1999.90;999.90;;;;;;;16.85;86.71;98537.61;214462;1297;141873;-78
2024/04/01 09:35:16;;;;;;;1999.90;999.90;;;;;;;17.10;86.44;98556.83;216656;1297;140458;-79
2024/04/01 09:40:17;;;;;;;1999.90;999.90;;;;;;;17.30;86.16;98552.50;214224;1297;141054;-79
2024/04/01 09:45:18;;;;;;;1999.90;999.90;;;;;;;17.52;84.59;98554.13;210754;1297;139436;-78
2024/04/01 09:50:20;;;;;;;1973.60;999.90;;;;;;;17.58;82.87;98564.07;210144;1300;141178;-78
2024/04/01 09:55:24;;;;;;;1969.10;999.90;;;;;;;17.62;82.88;98569.83;211455;1300;111645;-79
2024/04/01 10:00:52;;;;;;;1935.50;999.90;;;;;;;17.78;81.87;98570.63;210202;1298;140225;-78
2024/04/01 10:05:55;;;;;;;1701.90;999.90;;;;;;;17.81;80.19;98545.98;210620;1298;139342;-78
2024/04/01 10:11:14;;;;;;;1955.20;999.90;;;;;;;17.83;80.27;98538.77;210861;1297;140658;-78
2024/04/01 10:16:23;;;;;;;1939.60;999.90;;;;;;;17.95;80.54;98540.81;211766;1298;139780;-78
2024/04/01 10:21:55;;;;;;;1453.90;999.90;;;;;;;18.07;80.44;98519.73;211692;1296;141263;-79
2024/04/01 10:27:01;;;;;;;1978.70;999.90;;;;;;;18.38;79.87;98528.08;212117;1298;139433;-78
2024/04/01 10:32:21;;;;;;;1968.60;999.90;;;;;;;18.69;79.22;98523.10;211508;1297;140387;-79
2024/04/01 10:37:33;;;;;;;1999.90;999.90;;;;;;;18.93;78.34;98509.48;211980;1297;106756;-78
2024/04/01 10:43:08;;;;;;;1073.50;906.30;;;;;;;19.15;76.40;98514.44;211535;1300;139606;-79
2024/04/01 10:48:15;;;;;;;1450.10;993.70;;;;;;;19.10;74.76;98486.27;212845;1300;138843;-80
2024/04/01 10:53:34;;;;;;;1444.40;999.90;;;;;;;19.06;74.70;98453.25;212584;1298;139729;-79
2024/04/01 10:58:50;;;;;;;1999.90;999.90;;;;;;;19.23;76.56;98441.17;212837;1297;139418;-79
2024/04/01 11:03:59;;;;;;;1851.30;999.90;;;;;;;19.55;75.54;98453.72;212356;1297;139713;-79
2024/04/01 11:09:31;;;;;;;1760.30;999.90;;;;;;;19.61;73.15;98445.73;212439;1297;140049;-78
2024/04/01 11:14:34;;;;;;;995.50;890.50;;;;;;;19.67;73.53;98423.55;212415;1297;138685;-79
2024/04/01 11:20:04;;;;;;;1080.40;944.60;;;;;;;19.85;72.07;98418.02;215328;1296;139963;-80
2024/04/01 11:25:13;;;;;;;1824.40;999.90;;;;;;;20.01;71.61;98421.48;216609;1297;104345;-80
2024/04/01 11:30:26;;;;;;;1847.30;999.90;;;;;;;20.34;71.62;98429.09;212337;1297;140169;-80
2024/04/01 11:35:29;;;;;;;1878.60;999.90;;;;;;;20.62;70.13;98408.91;212641;1300;139505;-81
2024/04/01 11:40:33;;;;;;;1998.10;999.90;;;;;;;20.84;70.32;98413.63;212067;1298;139726;-80
2024/04/01 11:45:41;;;;;;;1741.20;999.90;;;;;;;21.18;69.25;98441.46;212531;1300;138772;-79
2024/04/01 11:50:52;;;;;;;1889.90;999.90;;;;;;;21.37;67.74;98443.60;212220;1297;140531;-80
2024/04/01 11:56:00;;;;;;;1999.90;999.90;;;;;;;21.64;69.04;98444.57;212608;1297;98542;-80
2024/04/01 12:01:01;;;;;;;1917.60;999.90;;;;;;;21.91;66.30;98434.13;212228;1301;140481;-80
2024/04/01 12:06:04;;;;;;;1687.90;999.90;;;;;;;22.12;65.03;98443.70;212886;1300;138630;-80
2024/04/01 12:11:06;;;;;;;1853.80;999.90;;;;;;;22.21;62.81;98448.23;212021;1298;139435;-79
2024/04/01 12:16:11;;;;;;;1831.70;999.90;;;;;;;22.30;62.30;98439.70;212481;1299;140082;-78
2024/04/01 12:21:12;;;;;;;1754.90;999.90;;;;;;;22.41;63.34;98439.25;211863;1296;139840;-79
2024/04/01 12:26:14;;;;;;;1817.30;999.90;;;;;;;22.51;61.89;98452.09;211996;1300;279120;-79
2024/04/01 12:31:15;;;;;;;1725.80;999.90;;;;;;;22.49;60.48;98435.23;211977;1300;139541;-78
2024/04/01 12:36:18;;;;;;;1999.90;999.90;;;;;;;22.56;61.89;98413.67;212816;1297;138721;-80
2024/04/01 12:41:20;;;;;;;1591.40;999.90;;;;;;;22.68;61.48;98397.55;213278;1300;141479;-80
2024/04/01 12:46:22;;;;;;;1472.60;993.60;;;;;;;22.74;61.18;98382.05;212365;1298;138774;-81
2024/04/01 12:51:27;;;;;;;1687.00;999.90;;;;;;;22.82;60.52;98383.19;213674;1300;140693;-79
2024/04/01 12:56:39;;;;;;;1651.40;999.90;;;;;;;22.95;60.22;98384.83;214013;1300;138937;-81
2024/04/01 13:01:49;;;;;;;1765.10;999.90;;;;;;;23.00;59.72;98391.55;213574;1296;139509;-81
2024/04/01 13:07:11;;;;;;;1942.30;999.90;;;;;;;23.14;60.05;98390.66;215510;1297;138676;-81
2024/04/01 13:12:31;;;;;;;1599.20;999.90;;;;;;;23.19;59.26;98377.81;216195;1299;139955;-79
2024/04/01 13:17:56;;;;;;;1920.50;996.40;;;;;;;23.17;59.02;98390.56;214317;1296;139377;-80
2024/04/01 13:23:19;;;;;;;1999.90;999.90;;;;;;;23.29;59.08;98401.13;211960;1300;140292;-79
2024/04/01 13:28:37;;;;;;;1999.90;999.90;;;;;;;23.29;58.82;98404.30;212236;1300;138806;-80
2024/04/01 13:34:23;;;;;;;1989.60;999.90;;;;;;;23.23;58.45;98391.48;211855;1300;139529;-79
2024/04/01 13:39:47;;;;;;;1999.90;999.90;;;;;;;23.17;58.94;98384.14;211071;1300;139454;-80
2024/04/01 13:45:19;;;;;;;1973.30;999.90;;;;;;;23.11;59.04;98366.27;212323;1300;138672;-79
2024/04/01 13:50:39;;;;;;;1960.00;999.90;;;;;;;23.07;58.66;98370.50;210769;1301;139550;-80
2024/04/01 13:55:52;;;;;;;1999.90;999.90;;;;;;;23.00;59.03;98369.52;212292;1300;104932;-79
2024/04/01 14:01:12;;;;;;;1999.90;999.90;;;;;;;23.03;59.90;98379.52;211546;1311;140288;-79
2024/04/01 14:06:18;;;;;;;1999.90;999.90;;;;;;;23.08;59.66;98374.94;211933;1302;138600;-78
2024/04/01 14:11:46;;;;;;;1999.90;999.90;;;;;;;23.00;59.79;98366.21;211722;1299;139854;-78
2024/04/01 14:17:01;;;;;;;1999.90;999.90;;;;;;;22.90;60.12;98360.75;211862;1298;138667;-78
2024/04/01 14:22:02;;;;;;;1999.90;999.90;;;;;;;22.83;60.40;98357.13;211547;1300;139787;-78
2024/04/01 14:27:03;;;;;;;1999.90;999.90;;;;;;;22.76;61.18;98362.42;212134;1298;139857;-78
2024/04/01 14:32:04;;;;;;;1999.90;999.90;;;;;;;22.81;61.81;98369.88;211614;1300;139844;-78
2024/04/01 14:37:06;;;;;;;1999.90;999.90;;;;;;;22.86;61.68;98374.33;212248;1298;97920;-78
2024/04/01 14:42:08;;;;;;;1999.90;999.90;;;;;;;22.85;61.79;98367.38;211356;1296;139264;-78
2024/04/01 14:47:09;;;;;;;1510.20;993.20;;;;;;;22.76;60.81;98374.47;212176;1297;138700;-82
2024/04/01 14:52:13;;;;;;;1767.70;999.90;;;;;;;22.61;59.36;98385.45;212308;1297;139782;-79
2024/04/01 14:57:14;;;;;;;1516.60;999.90;;;;;;;22.47;58.85;98387.64;216306;1297;138904;-79
2024/04/01 15:02:14;;;;;;;1554.10;999.90;;;;;;;22.32;58.83;98379.69;216109;1296;139841;-78
2024/04/01 15:07:15;;;;;;;1590.50;999.90;;;;;;;22.20;58.86;98377.21;211817;1300;98345;-79
2024/04/01 15:12:17;;;;;;;1945.50;999.90;;;;;;;22.11;59.70;98370.39;210283;1302;140025;-79
2024/04/01 15:17:19;;;;;;;1786.90;999.90;;;;;;;22.04;60.17;98368.07;210700;1303;138802;-79
2024/04/01 15:22:23;;;;;;;1784.80;999.90;;;;;;;21.93;60.66;98369.55;210551;1295;140164;-79
2024/04/01 15:27:24;;;;;;;1892.90;999.90;;;;;;;21.82;61.03;98364.72;210932;1297;138766;-79
2024/04/01 15:32:25;;;;;;;1589.40;980.80;;;;;;;21.69;60.81;98368.11;210496;1300;139984;-79
2024/04/01 15:37:25;;;;;;;1665.70;999.90;;;;;;;21.51;61.66;98370.93;211472;1301;98434;-79
2024/04/01 15:42:26;;;;;;;1987.30;999.90;;;;;;;21.43;61.56;98382.89;210547;1300;139064;-81
2024/04/01 15:47:27;;;;;;;1999.90;999.90;;;;;;;21.32;63.14;98390.40;213001;1297;139546;-79
2024/04/01 15:52:29;;;;;;;1999.90;999.90;;;;;;;21.08;64.92;98390.21;211839;1297;139769;-80
2024/04/01 15:57:31;;;;;;;1999.90;999.90;;;;;;;20.88;67.33;98386.42;212478;1300;140838;-79
2024/04/01 16:02:32;;;;;;;1999.90;999.90;;;;;;;20.68;69.64;98396.73;211877;1297;139722;-79
2024/04/01 16:07:33;;;;;;;1999.90;999.90;;;;;;;20.57;73.26;98400.84;212591;1297;98038;-79
2024/04/01 16:12:33;;;;;;;1999.90;999.90;;;;;;;20.42;75.07;98408.95;211980;1297;140097;-79
2024/04/01 16:17:36;;;;;;;1999.90;999.90;;;;;;;20.24;75.43;98403.11;212475;1297;138782;-79
2024/04/01 16:22:38;;;;;;;1999.90;999.90;;;;;;;20.08;76.43;98400.36;212150;1297;140514;-79
2024/04/01 16:28:06;;;;;;;1999.90;999.90;;;;;;;19.96;78.34;98403.40;212494;1301;139061;-79
2024/04/01 16:33:07;;;;;;;1999.90;999.90;;;;;;;19.82;79.75;98414.38;212185;1297;139484;-79
2024/04/01 16:38:08;;;;;;;1999.90;999.90;;;;;;;19.64;80.80;98411.44;213479;1297;138684;-79
2024/04/01 16:43:08;;;;;;;1999.90;999.90;;;;;;;19.44;83.06;98404.09;210655;1298;139685;-79
2024/04/01 16:48:09;;;;;;;1999.90;999.90;;;;;;;19.22;85.37;98399.17;211794;1300;138731;-79
2024/04/01 16:53:09;;;;;;;1999.90;999.90;;;;;;;19.09;86.19;98407.42;210849;1300;140683;-79
2024/04/01 16:58:14;;;;;;;1999.90;973.90;;;;;;;18.91;89.18;98408.90;211170;1300;139770;-79
2024/04/01 17:03:16;;;;;;;1999.90;713.80;;;;;;;18.66;91.56;98393.59;216622;1297;140631;-79
2024/04/01 17:08:18;;;;;;;1999.90;946.70;;;;;;;18.53;93.14;98464.41;212620;1302;139400;-81
2024/04/01 17:13:20;;;;;;;1999.90;999.90;;;;;;;18.25;97.67;98624.63;212813;1295;140152;-86
2024/04/01 17:18:21;;;;;;;1999.90;942.60;;;;;;;17.33;100.00;98591.46;213119;1297;139981;-91
2024/04/01 17:23:22;;;;;;;1999.90;970.10;;;;;;;16.57;100.00;98523.54;212448;1297;140229;-90
2024/04/01 17:28:25;;;;;;;1999.90;999.90;;;;;;;16.05;100.00;98508.86;212914;1300;140261;-87
2024/04/01 17:33:27;;;;;;;1999.90;999.90;;;;;;;15.70;100.00;98462.41;212059;1297;140415;-82
2024/04/01 17:38:28;;;;;;;1999.90;999.90;;;;;;;15.50;100.00;98455.19;212822;1296;139865;-83
2024/04/01 17:43:30;;;;;;;1999.90;999.90;;;;;;;15.37;100.00;98457.75;212854;1298;141621;-81
2024/04/01 17:48:33;;;;;;;1999.90;999.90;;;;;;;15.28;100.00;98507.56;212729;1296;140673;-82
2024/04/01 17:53:33;;;;;;;1999.90;999.90;;;;;;;15.12;100.00;98551.00;211871;1297;139983;-82
2024/04/01 17:58:35;;;;;;;1999.90;999.90;;;;;;;14.92;100.00;98565.92;212497;1297;141536;-81
2024/04/01 18:03:38;;;;;;;1999.90;999.90;;;;;;;14.82;100.00;98548.39;211993;1297;141706;-81
2024/04/01 18:08:39;;;;;;;1999.90;999.90;;;;;;;14.81;100.00;98569.09;212578;1297;139820;-83
2024/04/01 18:13:39;;;;;;;1999.90;999.90;;;;;;;14.76;100.00;98594.58;211843;1297;140489;-83
2024/04/01 18:18:41;;;;;;;1999.90;999.90;;;;;;;14.67;100.00;98597.91;212076;1300;140256;-84
2024/04/01 18:23:42;;;;;;;1999.90;999.90;;;;;;;14.59;100.00;98609.20;211720;1297;140871;-82
2024/04/01 18:28:45;;;;;;;1999.90;999.90;;;;;;;14.49;100.00;98624.23;212390;1300;140116;-82
2024/04/01 18:33:46;;;;;;;1999.90;999.90;;;;;;;14.39;100.00;98657.38;212020;1297;141445;-82
2024/04/01 18:38:46;;;;;;;1999.90;999.90;;;;;;;14.28;100.00;98655.73;212857;1301;139716;-83
2024/04/01 18:43:54;;;;;;;1999.90;999.90;;;;;;;14.22;100.00;98652.87;211852;1298;140648;-82
2024/04/01 18:48:55;;;;;;;1999.90;999.90;;;;;;;14.18;100.00;98646.98;212179;1297;139662;-82
2024/04/01 18:53:56;;;;;;;1999.90;999.90;;;;;;;14.14;100.00;98636.42;211980;1296;140501;-82
2024/04/01 18:58:57;;;;;;;1999.90;999.90;;;;;;;14.11;100.00;98605.85;211793;1297;140282;-82
2024/04/01 19:03:57;;;;;;;1999.90;999.90;;;;;;;14.10;100.00;98608.33;212386;1297;139823;-82
2024/04/01 19:08:58;;;;;;;1999.90;999.90;;;;;;;14.08;100.00;98622.64;212110;1297;140644;-81
2024/04/01 19:13:59;;;;;;;1999.90;999.90;;;;;;;14.02;100.00;98625.41;212563;1298;98656;-81
2024/04/01 19:18:59;;;;;;;1999.90;999.90;;;;;;;13.96;100.00;98642.29;211922;1297;140495;-81
2024/04/01 19:23:59;;;;;;;1999.90;999.90;;;;;;;13.89;100.00;98650.24;212542;1295;140001;-81
2024/04/01 19:29:01;;;;;;;1999.90;999.90;;;;;;;13.83;100.00;98635.25;211838;1297;140257;-81
2024/04/01 19:34:02;;;;;;;1999.90;999.90;;;;;;;13.78;100.00;98637.95;212695;1297;139748;-80
2024/04/01 19:39:04;;;;;;;1999.90;999.90;;;;;;;13.71;100.00;98625.03;211830;1296;140740;-81
2024/04/01 19:44:09;;;;;;;1999.90;999.90;;;;;;;13.68;100.00;98611.08;212445;1298;139659;-81
2024/04/01 19:49:10;;;;;;;1999.90;999.90;;;;;;;13.65;100.00;98613.87;212025;1298;141216;-81
2024/04/01 19:54:10;;;;;;;1999.90;999.90;;;;;;;13.56;100.00;98643.44;212400;1297;139938;-80
2024/04/01 19:59:23;;;;;;;1999.90;999.90;;;;;;;13.49;100.00;98644.11;211949;1296;140630;-80
2024/04/01 20:04:24;;;;;;;1999.90;999.90;;;;;;;13.45;100.00;98628.76;212594;1297;139639;-80
2024/04/01 20:09:28;;;;;;;1957.60;999.90;;;;;;;13.37;100.00;98644.22;211953;1300;140526;-80
2024/04/01 20:14:31;;;;;;;1999.80;999.90;;;;;;;13.29;100.00;98641.21;212153;1297;139821;-81
2024/04/01 20:19:32;;;;;;;1999.90;999.90;;;;;;;13.20;100.00;98653.77;211724;1298;141971;-82
2024/04/01 20:24:32;;;;;;;1984.70;999.90;;;;;;;13.11;100.00;98657.58;212198;1297;141117;-82
2024/04/01 20:29:33;;;;;;;1699.20;987.10;;;;;;;13.03;100.00;98660.24;212110;1297;141721;-81
2024/04/01 20:34:35;;;;;;;1862.80;999.90;;;;;;;12.95;100.00;98630.46;212310;1297;140180;-81
2024/04/01 20:39:36;;;;;;;1734.60;999.90;;;;;;;12.88;100.00;98630.02;211647;1300;140941;-82
2024/04/01 20:44:38;;;;;;;1767.40;999.90;;;;;;;12.80;100.00;98638.75;212220;1297;139784;-81
2024/04/01 20:49:38;;;;;;;1641.50;999.90;;;;;;;12.74;100.00;98646.63;211862;1296;141569;-81
2024/04/01 20:54:39;;;;;;;1487.70;997.90;;;;;;;12.73;100.00;98644.55;212351;1298;139835;-81
2024/04/01 20:59:39;;;;;;;1422.40;988.20;;;;;;;12.67;100.00;98660.70;212040;1297;140661;-82
2024/04/01 21:04:40;;;;;;;1310.10;977.30;;;;;;;12.62;100.00;98658.52;212276;1296;140121;-80
2024/04/01 21:09:41;;;;;;;1312.80;975.20;;;;;;;12.58;100.00;98653.21;211732;1300;140435;-81
2024/04/01 21:14:41;;;;;;;1311.60;986.80;;;;;;;12.51;100.00;98668.35;212374;1297;140480;-80
2024/04/01 21:19:42;;;;;;;1272.50;979.10;;;;;;;12.45;100.00;98671.36;211966;1297;140449;-80
2024/04/01 21:24:42;;;;;;;1298.00;968.20;;;;;;;12.39;100.00;98678.19;213014;1297;139371;-81
2024/04/01 21:29:42;;;;;;;1189.70;945.80;;;;;;;12.35;100.00;98685.88;212138;1300;140925;-80
2024/04/01 21:34:42;;;;;;;1071.20;908.60;;;;;;;12.27;100.00;98675.70;212473;1300;139700;-83
2024/04/01 21:39:44;;;;;;;1127.10;926.50;;;;;;;12.22;100.00;98670.09;211979;1296;142028;-82
2024/04/01 21:44:44;;;;;;;1090.60;913.30;;;;;;;12.16;100.00;98679.30;212502;1297;140559;-83
2024/04/01 21:49:45;;;;;;;1092.10;917.10;;;;;;;12.11;100.00;98676.75;212129;1297;141118;-81
2024/04/01 21:54:45;;;;;;;996.50;869.90;;;;;;;12.05;100.00;98675.46;212379;1300;139384;-82
2024/04/01 21:59:47;;;;;;;961.30;854.40;;;;;;;11.98;100.00;98674.20;211842;1300;140072;-82
2024/04/01 22:04:47;;;;;;;960.40;860.80;;;;;;;11.89;100.00;98675.89;212437;1297;139869;-82